Time;durP1;ratioP1;P1;durP2;ratioP2;P2;SDS_P1;SDS_P2;PMS_P1;PMS_P2;Temp;Humidity;BMP_temperature;BMP_pressure;BME280_temperature;BME280_humidity;BME280_pressure;Samples;Min_cycle;Max_cycle;Signal;HPM_P1;HPM_P2
2023/09/11 00:02:18;;;;;;;14.73;6.67;;;;;;;19.13;100.00;100748.84;5057321;28;20278;-58
2023/09/11 00:04:48;;;;;;;15.57;7.57;;;;;;;19.15;100.00;100753.13;5067678;28;20725;-57
2023/09/11 00:07:20;;;;;;;11.43;6.87;;;;;;;19.16;100.00;100738.94;5057455;28;20719;-58
2023/09/11 00:09:51;;;;;;;12.87;6.97;;;;;;;19.24;100.00;100729.81;5067591;28;20286;-58
2023/09/11 00:12:21;;;;;;;14.87;7.80;;;;;;;19.33;100.00;100730.25;5042327;28;20810;-58
2023/09/11 00:14:52;;;;;;;12.97;7.40;;;;;;;19.49;100.00;100735.69;5047405;28;20370;-58
2023/09/11 00:17:22;;;;;;;15.00;6.93;;;;;;;19.66;100.00;100734.94;5037131;28;20622;-58
2023/09/11 00:19:54;;;;;;;15.70;7.43;;;;;;;19.74;100.00;100746.06;5047181;28;20666;-57
2023/09/11 00:22:26;;;;;;;17.00;7.77;;;;;;;19.88;100.00;100741.94;5036763;28;20283;-57
2023/09/11 00:24:57;;;;;;;16.70;7.53;;;;;;;19.95;100.00;100743.34;5047726;28;20298;-59
2023/09/11 00:27:28;;;;;;;16.90;7.40;;;;;;;20.01;100.00;100720.03;5037252;28;20275;-58
2023/09/11 00:29:59;;;;;;;20.40;8.60;;;;;;;20.33;100.00;100744.13;5047043;28;20410;-59
2023/09/11 00:32:29;;;;;;;17.07;7.63;;;;;;;20.60;100.00;100741.09;5036639;28;20358;-58
2023/09/11 00:35:00;;;;;;;15.20;7.50;;;;;;;20.72;100.00;100739.56;5044867;28;20299;-57
2023/09/11 00:37:32;;;;;;;20.77;7.43;;;;;;;20.79;100.00;100735.69;5066615;28;20285;-56
2023/09/11 00:40:03;;;;;;;18.40;7.63;;;;;;;20.85;100.00;100740.69;5057002;28;20351;-58
2023/09/11 00:42:34;;;;;;;20.37;7.97;;;;;;;20.87;100.00;100738.81;5067384;28;20282;-57
2023/09/11 00:45:06;;;;;;;20.70;8.17;;;;;;;20.94;100.00;100745.50;5041153;28;20275;-57
2023/09/11 00:47:37;;;;;;;14.67;7.27;;;;;;;20.89;100.00;100736.91;5046743;28;20287;-58
2023/09/11 00:50:11;;;;;;;13.00;7.13;;;;;;;20.89;100.00;100742.22;5036556;28;20311;-60
2023/09/11 00:52:44;;;;;;;17.40;7.60;;;;;;;20.89;100.00;100731.59;5046600;28;20325;-57
2023/09/11 00:55:14;;;;;;;17.47;6.47;;;;;;;20.87;100.00;100738.81;5036428;28;20697;-58
2023/09/11 00:57:45;;;;;;;19.63;6.70;;;;;;;21.07;100.00;100735.13;5048908;28;20278;-58
2023/09/11 01:00:16;;;;;;;14.33;7.00;;;;;;;21.26;99.63;100729.66;5055992;28;20271;-58
2023/09/11 01:02:47;;;;;;;16.57;7.40;;;;;;;21.48;98.78;100732.91;5064988;28;20278;-58
2023/09/11 01:05:18;;;;;;;21.30;7.73;;;;;;;21.61;97.07;100733.09;5045223;28;20378;-58
2023/09/11 01:07:50;;;;;;;13.37;6.53;;;;;;;21.70;95.46;100737.06;5065512;28;20524;-58
2023/09/11 01:10:21;;;;;;;15.97;7.10;;;;;;;21.48;94.32;100693.03;5051924;28;21028;-59
2023/09/11 01:12:52;;;;;;;21.23;7.03;;;;;;;21.83;94.63;100726.59;5065687;28;20043;-59
2023/09/11 01:15:23;;;;;;;20.03;6.97;;;;;;;21.87;93.33;100726.34;5056685;28;20186;-57
2023/09/11 01:18:05;;;;;;;15.33;6.60;;;;;;;21.94;93.13;100721.53;5059598;28;20377;-56
2023/09/11 01:21:10;;;;;;;16.67;7.23;;;;;;;22.02;93.05;100718.47;5035651;28;20056;-59
2023/09/11 01:23:58;;;;;;;16.43;7.03;;;;;;;21.91;91.48;100717.25;5026733;28;20044;-57
2023/09/11 01:26:53;;;;;;;18.10;6.80;;;;;;;22.13;92.71;100724.00;5034959;28;20289;-58
2023/09/11 01:29:27;;;;;;;17.63;6.23;;;;;;;22.22;91.46;100698.72;5035136;28;20604;-58
2023/09/11 01:32:00;;;;;;;11.73;6.10;;;;;;;22.42;90.03;100716.19;5046135;28;20121;-59
2023/09/11 01:34:30;;;;;;;17.57;6.40;;;;;;;22.50;87.83;100703.28;5035918;28;20418;-57
2023/09/11 01:37:01;;;;;;;15.40;5.93;;;;;;;22.39;86.46;100701.25;5054152;28;20067;-59
2023/09/11 01:39:32;;;;;;;21.80;6.63;;;;;;;22.35;88.59;100695.22;5066004;28;20040;-58
2023/09/11 01:42:11;;;;;;;15.80;6.20;;;;;;;22.32;88.96;100690.09;5056339;28;20063;-59
2023/09/11 01:44:45;;;;;;;15.70;6.47;;;;;;;22.35;89.25;100673.94;5071617;28;20135;-58
2023/09/11 01:47:22;;;;;;;25.33;7.00;;;;;;;22.61;88.62;100684.84;5059356;28;20036;-59
2023/09/11 01:49:56;;;;;;;18.70;6.13;;;;;;;22.89;88.49;100672.50;5070525;28;20055;-59
2023/09/11 01:52:28;;;;;;;14.77;6.70;;;;;;;22.87;85.25;100653.13;5060763;28;20362;-59
2023/09/11 01:55:00;;;;;;;14.33;6.67;;;;;;;22.97;82.92;100660.47;5071087;28;20059;-60
2023/09/11 01:57:31;;;;;;;16.87;5.87;;;;;;;23.15;84.69;100663.78;5061690;28;20047;-60
2023/09/11 02:00:03;;;;;;;13.47;5.90;;;;;;;23.30;85.26;100656.66;5062732;28;20146;-59
2023/09/11 02:02:34;;;;;;;18.83;6.53;;;;;;;23.45;84.58;100654.81;5070779;28;20062;-60
2023/09/11 02:05:06;;;;;;;17.40;6.60;;;;;;;23.70;84.38;100643.41;5059520;28;20062;-60
2023/09/11 02:07:36;;;;;;;17.03;5.87;;;;;;;23.96;82.99;100639.03;5068524;28;20059;-59
2023/09/11 02:10:08;;;;;;;18.80;5.97;;;;;;;24.17;80.80;100641.28;5058535;28;20035;-59
2023/09/11 02:12:39;;;;;;;14.73;5.57;;;;;;;24.19;78.40;100636.66;5072066;28;20097;-60
2023/09/11 02:15:11;;;;;;;18.60;5.90;;;;;;;24.25;77.42;100622.91;5060076;28;20059;-60
2023/09/11 02:17:42;;;;;;;16.93;6.20;;;;;;;24.37;77.79;100626.56;5070923;28;20067;-60
2023/09/11 02:20:13;;;;;;;15.33;5.80;;;;;;;24.40;77.26;100627.19;5058888;28;20066;-60
2023/09/11 02:22:43;;;;;;;15.43;5.50;;;;;;;24.39;77.59;100630.84;5070550;28;20142;-59
2023/09/11 02:25:14;;;;;;;15.40;6.17;;;;;;;24.46;77.51;100621.47;5059453;28;20152;-60
2023/09/11 02:27:44;;;;;;;14.70;5.67;;;;;;;24.49;77.21;100621.25;5070584;28;20413;-60
2023/09/11 02:30:17;;;;;;;15.00;5.30;;;;;;;24.52;76.69;100610.34;5058866;28;20066;-60
2023/09/11 02:32:47;;;;;;;10.07;5.27;;;;;;;24.67;77.24;100612.94;5069727;28;20458;-60
2023/09/11 02:35:18;;;;;;;15.93;5.80;;;;;;;24.78;76.05;100610.34;5059658;28;20040;-59
2023/09/11 02:37:48;;;;;;;17.33;5.43;;;;;;;24.81;76.44;100615.50;5071064;28;20039;-58
2023/09/11 02:40:19;;;;;;;18.87;5.37;;;;;;;24.92;76.47;100606.72;5059706;28;20195;-60
2023/09/11 02:42:49;;;;;;;17.07;6.20;;;;;;;25.00;75.17;100619.53;5071420;28;20048;-60
2023/09/11 02:45:22;;;;;;;15.27;6.07;;;;;;;24.79;74.46;100617.41;5060455;28;20128;-59
2023/09/11 02:47:52;;;;;;;17.00;5.87;;;;;;;24.78;74.96;100615.69;5069591;28;20121;-59
2023/09/11 02:50:23;;;;;;;18.73;6.33;;;;;;;24.82;76.04;100609.19;5058201;28;20146;-59
2023/09/11 02:52:53;;;;;;;21.53;5.90;;;;;;;25.02;76.34;100617.63;5070412;28;20040;-58
2023/09/11 02:55:24;;;;;;;17.37;5.50;;;;;;;25.07;76.29;100610.97;5059321;28;20047;-60
2023/09/11 02:57:54;;;;;;;16.43;5.77;;;;;;;24.80;73.90;100568.34;5068604;28;20134;-59
2023/09/11 03:00:27;;;;;;;15.47;6.57;;;;;;;24.94;74.22;100611.00;5056363;28;20435;-59
2023/09/11 03:02:58;;;;;;;19.00;6.23;;;;;;;24.93;75.02;100611.94;5049411;28;20054;-59
2023/09/11 03:05:28;;;;;;;14.70;5.53;;;;;;;25.08;75.88;100612.66;5032865;28;20052;-59
2023/09/11 03:07:59;;;;;;;17.50;5.57;;;;;;;25.13;75.34;100620.34;5044655;28;20059;-58
2023/09/11 03:10:30;;;;;;;18.73;6.50;;;;;;;25.18;74.78;100612.88;5050933;28;20047;-57
2023/09/11 03:13:01;;;;;;;15.10;5.90;;;;;;;25.31;74.39;100612.84;5056533;28;20055;-58
2023/09/11 03:15:33;;;;;;;14.77;5.80;;;;;;;25.50;74.59;100612.38;5065123;28;20048;-58
2023/09/11 03:18:04;;;;;;;13.00;5.43;;;;;;;25.73;73.28;100608.84;5053914;28;20059;-59
2023/09/11 03:20:35;;;;;;;14.60;6.17;;;;;;;25.86;72.51;100602.59;5064532;28;20048;-57
2023/09/11 03:23:06;;;;;;;16.83;5.73;;;;;;;25.97;73.27;100600.84;5054121;28;20072;-58
2023/09/11 03:25:37;;;;;;;13.27;5.53;;;;;;;26.08;72.55;100581.25;5064385;28;20447;-58
2023/09/11 03:28:08;;;;;;;14.20;5.83;;;;;;;26.30;71.15;100590.34;5054098;28;20055;-58
2023/09/11 03:30:40;;;;;;;36.50;13.57;;;;;;;26.34;70.21;100590.00;5064677;28;20048;-58
2023/09/11 03:33:10;;;;;;;15.50;6.07;;;;;;;26.15;70.14;100593.22;5054512;28;20047;-58
2023/09/11 03:35:41;;;;;;;15.47;6.57;;;;;;;26.09;70.62;100584.81;5068241;28;20124;-59
2023/09/11 03:38:12;;;;;;;23.77;9.27;;;;;;;25.86;70.45;100586.53;5057876;28;20060;-59
2023/09/11 03:40:44;;;;;;;20.73;6.67;;;;;;;25.55;70.40;100540.66;5068161;28;20059;-57
2023/09/11 03:43:15;;;;;;;23.13;7.53;;;;;;;25.91;71.95;100579.03;5057945;28;20126;-57
2023/09/11 03:45:48;;;;;;;19.67;6.57;;;;;;;25.95;71.16;100570.66;5068194;28;20467;-58
2023/09/11 03:48:21;;;;;;;15.77;7.40;;;;;;;25.86;70.46;100565.13;5058131;28;20057;-57
2023/09/11 03:50:52;;;;;;;16.97;5.87;;;;;;;25.54;71.66;100560.38;5067800;28;20060;-58
2023/09/11 03:53:22;;;;;;;14.70;5.60;;;;;;;25.58;72.50;100562.66;5057718;28;20054;-56
2023/09/11 03:55:53;;;;;;;15.13;5.60;;;;;;;25.71;72.87;100562.63;5067898;28;20078;-60
2023/09/11 03:58:24;;;;;;;13.77;6.07;;;;;;;25.83;73.05;100561.72;5057613;28;20143;-59
2023/09/11 04:00:56;;;;;;;17.10;6.03;;;;;;;26.02;72.41;100561.19;5067889;28;20209;-56
2023/09/11 04:03:27;;;;;;;17.37;6.13;;;;;;;26.02;71.64;100549.63;5057724;28;20056;-59
2023/09/11 04:05:58;;;;;;;15.73;5.00;;;;;;;25.98;72.08;100548.13;5068097;28;20430;-59
2023/09/11 04:08:28;;;;;;;15.90;5.30;;;;;;;25.85;70.42;100542.00;5057328;28;20386;-58
2023/09/11 04:11:00;;;;;;;14.07;5.77;;;;;;;25.85;71.66;100542.00;5066231;28;20043;-56
2023/09/11 04:13:32;;;;;;;24.47;6.27;;;;;;;25.99;71.04;100539.16;5067758;28;20734;-59
2023/09/11 04:16:04;;;;;;;18.60;5.93;;;;;;;26.04;71.34;100543.19;5057366;28;20054;-58
2023/09/11 04:18:36;;;;;;;18.03;5.90;;;;;;;26.13;70.88;100533.56;5067628;28;20431;-59
2023/09/11 04:21:08;;;;;;;16.10;5.67;;;;;;;25.91;71.56;100541.53;5057008;28;20059;-58
2023/09/11 04:23:38;;;;;;;15.77;5.70;;;;;;;25.73;71.72;100541.94;5067408;28;20626;-58
2023/09/11 04:26:09;;;;;;;23.53;5.67;;;;;;;25.61;72.02;100534.84;5057211;28;20116;-58
2023/09/11 04:28:40;;;;;;;12.00;5.23;;;;;;;25.30;71.67;100491.66;5067625;28;20431;-58
2023/09/11 04:31:13;;;;;;;16.17;5.07;;;;;;;25.48;72.29;100542.06;5056953;28;20035;-56
2023/09/11 04:33:43;;;;;;;16.93;5.20;;;;;;;25.44;73.36;100537.94;5067379;28;20513;-56
2023/09/11 04:36:14;;;;;;;16.47;5.73;;;;;;;25.26;73.59;100508.91;5056968;28;20142;-56
2023/09/11 04:38:45;;;;;;;16.70;5.07;;;;;;;25.28;73.56;100528.34;5067366;28;20374;-57
2023/09/11 04:41:16;;;;;;;22.50;5.97;;;;;;;25.27;74.84;100537.34;5057046;28;20374;-59
2023/09/11 04:43:47;;;;;;;12.57;5.10;;;;;;;25.31;74.68;100538.84;5066778;28;20458;-58
2023/09/11 04:46:19;;;;;;;17.80;6.20;;;;;;;25.40;73.93;100543.50;5055601;28;20071;-57
2023/09/11 04:48:49;;;;;;;17.80;5.37;;;;;;;25.46;74.29;100546.69;5067115;28;20130;-57
2023/09/11 04:51:20;;;;;;;18.60;5.13;;;;;;;25.62;74.67;100547.25;5057435;28;20141;-58
2023/09/11 04:53:51;;;;;;;17.53;4.90;;;;;;;25.60;73.75;100549.19;5066696;28;20408;-58
2023/09/11 04:56:21;;;;;;;15.03;5.10;;;;;;;25.34;73.44;100543.13;5056594;28;20040;-56
2023/09/11 04:58:52;;;;;;;14.50;5.47;;;;;;;25.28;74.40;100549.75;5066467;28;20235;-57
2023/09/11 05:01:24;;;;;;;13.83;5.20;;;;;;;25.24;75.42;100550.09;5056069;28;20451;-57
2023/09/11 05:03:55;;;;;;;14.83;5.60;;;;;;;25.21;74.69;100542.28;5066578;28;20040;-57
2023/09/11 05:06:25;;;;;;;17.60;5.00;;;;;;;25.05;74.65;100537.19;5056727;28;20128;-59
2023/09/11 05:08:56;;;;;;;16.40;5.67;;;;;;;24.97;74.88;100541.25;5066377;28;20040;-59
2023/09/11 05:11:29;;;;;;;13.60;5.10;;;;;;;24.90;75.95;100542.66;5056041;28;20040;-57
2023/09/11 05:14:00;;;;;;;17.77;5.93;;;;;;;24.78;75.59;100535.53;5063270;28;20040;-57
2023/09/11 05:16:32;;;;;;;20.63;6.23;;;;;;;24.70;76.65;100532.56;5066408;28;20048;-56
2023/09/11 05:19:03;;;;;;;23.57;6.30;;;;;;;24.38;76.12;100538.31;5056200;28;20482;-58
2023/09/11 05:21:34;;;;;;;18.37;6.03;;;;;;;24.09;76.71;100533.19;5066836;28;20098;-57
2023/09/11 05:24:05;;;;;;;14.00;5.43;;;;;;;23.98;77.79;100530.38;5056394;28;20060;-57
2023/09/11 05:26:36;;;;;;;17.83;5.73;;;;;;;23.97;78.89;100528.69;5066226;28;20044;-57
2023/09/11 05:29:06;;;;;;;14.80;5.80;;;;;;;24.21;79.33;100531.50;5056430;28;20227;-57
2023/09/11 05:31:39;;;;;;;15.90;6.40;;;;;;;24.27;78.75;100531.06;5066633;28;20132;-58
2023/09/11 05:34:09;;;;;;;15.50;5.60;;;;;;;24.31;78.61;100532.56;5055730;28;20036;-57
2023/09/11 05:36:40;;;;;;;18.73;5.33;;;;;;;23.89;77.81;100475.84;5066558;28;20044;-57
2023/09/11 05:39:11;;;;;;;14.57;5.37;;;;;;;24.18;77.55;100530.84;5055723;28;20459;-57
2023/09/11 05:41:41;;;;;;;16.33;5.63;;;;;;;23.96;77.57;100532.28;5065706;28;20052;-59
2023/09/11 05:44:12;;;;;;;17.97;5.63;;;;;;;23.82;78.32;100537.72;5055502;28;20048;-57
2023/09/11 05:46:44;;;;;;;19.37;5.83;;;;;;;23.78;79.25;100533.53;5065338;28;20136;-57
2023/09/11 05:49:14;;;;;;;18.13;5.63;;;;;;;23.82;79.92;100530.56;5055317;28;20063;-57
2023/09/11 05:51:45;;;;;;;18.57;5.63;;;;;;;23.91;79.80;100529.06;5065335;28;20044;-58
2023/09/11 05:54:16;;;;;;;13.63;5.30;;;;;;;23.85;78.77;100524.16;5056027;28;20050;-59
2023/09/11 05:56:46;;;;;;;12.37;5.83;;;;;;;23.86;79.20;100520.53;5065522;28;20083;-58
2023/09/11 05:59:19;;;;;;;13.23;5.20;;;;;;;23.75;78.59;100523.09;5055221;28;20056;-57
2023/09/11 06:01:52;;;;;;;18.93;5.53;;;;;;;23.66;79.06;100525.41;5065133;28;20043;-58
2023/09/11 06:04:22;;;;;;;11.03;5.00;;;;;;;23.69;79.63;100527.84;5055359;28;20040;-57
2023/09/11 06:06:53;;;;;;;10.83;4.70;;;;;;;23.56;80.06;100524.25;5050348;28;20422;-58
2023/09/11 06:09:23;;;;;;;16.07;5.37;;;;;;;23.25;79.73;100504.97;5045430;28;20055;-58
2023/09/11 06:11:54;;;;;;;17.77;6.13;;;;;;;23.31;80.80;100529.50;5065296;28;20093;-57
2023/09/11 06:14:24;;;;;;;13.47;5.83;;;;;;;23.15;80.98;100535.00;5055326;28;20044;-58
2023/09/11 06:16:57;;;;;;;16.37;5.07;;;;;;;22.98;81.25;100533.41;5065290;28;20513;-59
2023/09/11 06:19:27;;;;;;;14.87;5.43;;;;;;;22.79;81.67;100523.91;5055138;28;20044;-58
2023/09/11 06:21:58;;;;;;;17.87;5.50;;;;;;;22.70;82.94;100524.47;5065432;28;20139;-59
2023/09/11 06:24:28;;;;;;;19.67;5.60;;;;;;;22.70;83.72;100528.94;5055458;28;20051;-58
2023/09/11 06:27:08;;;;;;;20.50;5.47;;;;;;;22.72;84.24;100535.03;5065424;28;20036;-58
2023/09/11 06:29:39;;;;;;;19.90;5.60;;;;;;;22.65;84.28;100531.91;5054848;28;20176;-59
2023/09/11 06:32:14;;;;;;;12.93;5.70;;;;;;;22.54;84.33;100529.03;5054415;28;20497;-57
2023/09/11 06:34:45;;;;;;;14.30;5.77;;;;;;;22.45;85.42;100529.63;5064921;28;20138;-58
2023/09/11 06:37:16;;;;;;;21.87;5.97;;;;;;;22.42;85.58;100524.50;5053974;28;20068;-58
2023/09/11 06:39:46;;;;;;;18.73;6.03;;;;;;;22.31;85.12;100518.00;5065085;28;20040;-57
2023/09/11 06:42:21;;;;;;;15.90;5.80;;;;;;;22.15;85.39;100506.56;5054880;28;20044;-57
2023/09/11 06:44:53;;;;;;;19.13;5.67;;;;;;;22.15;86.18;100490.59;5064952;28;20059;-58
2023/09/11 06:47:25;;;;;;;13.80;5.60;;;;;;;22.47;86.11;100511.75;5054353;28;20856;-57
2023/09/11 06:49:57;;;;;;;15.07;5.73;;;;;;;22.54;85.74;100521.91;5065081;28;20047;-59
2023/09/11 06:52:27;;;;;;;14.97;6.33;;;;;;;22.43;85.23;100526.19;5053942;28;20075;-59
2023/09/11 06:54:58;;;;;;;20.00;6.90;;;;;;;22.34;85.68;100516.94;5064934;28;20043;-59
2023/09/11 06:57:29;;;;;;;15.70;6.67;;;;;;;22.28;86.08;100522.66;5055040;28;20039;-59
2023/09/11 06:59:59;;;;;;;13.27;5.93;;;;;;;22.18;86.24;100517.00;5064665;28;20386;-59
2023/09/11 07:02:31;;;;;;;17.00;5.67;;;;;;;22.04;86.66;100516.97;5053982;28;20397;-58
2023/09/11 07:05:04;;;;;;;16.60;6.03;;;;;;;21.90;87.11;100512.50;5054580;28;20040;-59
2023/09/11 07:07:34;;;;;;;15.23;6.13;;;;;;;21.89;88.24;100522.28;5044399;28;20084;-59
2023/09/11 07:10:07;;;;;;;17.23;5.43;;;;;;;21.85;88.49;100520.75;5048722;28;20530;-58
2023/09/11 07:12:37;;;;;;;18.37;6.20;;;;;;;21.83;88.42;100525.28;5065052;28;20143;-59
2023/09/11 07:15:08;;;;;;;14.87;6.63;;;;;;;21.67;88.23;100521.84;5054044;28;20048;-59
2023/09/11 07:17:41;;;;;;;15.30;6.00;;;;;;;21.62;88.98;100521.25;5064539;28;20048;-58
2023/09/11 07:20:13;;;;;;;14.90;6.00;;;;;;;21.58;89.91;100533.00;5053949;28;20173;-59
2023/09/11 07:22:44;;;;;;;19.13;6.53;;;;;;;21.54;90.42;100527.88;5064235;28;20142;-59
2023/09/11 07:25:18;;;;;;;24.07;6.90;;;;;;;21.49;90.83;100540.56;5053955;28;20582;-58
2023/09/11 07:27:50;;;;;;;21.67;6.77;;;;;;;21.41;91.40;100541.94;5064061;28;20044;-59
2023/09/11 07:30:21;;;;;;;17.97;7.07;;;;;;;21.37;92.32;100541.25;5054662;28;20415;-60
2023/09/11 07:32:55;;;;;;;18.90;7.17;;;;;;;21.37;92.59;100549.22;5064224;28;20048;-61
2023/09/11 07:35:26;;;;;;;17.73;7.43;;;;;;;21.30;92.78;100554.00;5053714;28;20044;-59
2023/09/11 07:37:57;;;;;;;17.67;7.07;;;;;;;21.20;92.49;100550.16;5064209;28;20484;-59
2023/09/11 07:40:27;;;;;;;20.50;7.83;;;;;;;21.09;92.80;100553.44;5053855;28;20439;-60
2023/09/11 07:42:58;;;;;;;24.70;7.27;;;;;;;21.05;93.54;100553.69;5064239;28;20367;-60
2023/09/11 07:45:28;;;;;;;19.03;7.37;;;;;;;20.93;93.97;100557.84;5054110;28;20102;-59
2023/09/11 07:48:01;;;;;;;15.10;7.43;;;;;;;20.88;94.48;100559.91;5064285;28;20040;-60
2023/09/11 07:50:31;;;;;;;16.80;6.80;;;;;;;20.83;94.85;100551.34;5053556;28;20075;-58
2023/09/11 07:53:02;;;;;;;16.37;6.97;;;;;;;20.82;95.41;100549.63;5050153;28;20278;-57
2023/09/11 07:55:39;;;;;;;22.30;7.40;;;;;;;20.79;95.84;100555.09;5065575;28;20285;-61
2023/09/11 07:58:10;;;;;;;19.87;7.00;;;;;;;20.63;96.20;100523.22;5059790;28;20284;-59
2023/09/11 08:00:41;;;;;;;18.53;6.70;;;;;;;20.77;96.00;100546.38;5069206;28;20278;-58
2023/09/11 08:03:13;;;;;;;22.70;7.40;;;;;;;20.73;96.48;100544.81;5059692;28;21236;-61
2023/09/11 08:05:44;;;;;;;19.90;7.00;;;;;;;20.72;96.76;100543.97;5070022;28;20290;-59
2023/09/11 08:08:16;;;;;;;24.40;6.70;;;;;;;20.68;96.57;100542.41;5060358;28;20282;-60
2023/09/11 08:10:46;;;;;;;20.80;6.80;;;;;;;20.66;96.81;100539.81;5068391;28;21086;-60
2023/09/11 08:13:19;;;;;;;25.07;7.30;;;;;;;20.59;97.31;100541.13;5058292;28;20771;-60
2023/09/11 08:15:50;;;;;;;27.57;7.50;;;;;;;20.47;97.60;100533.78;5069082;28;20271;-59
2023/09/11 08:18:22;;;;;;;20.23;6.80;;;;;;;20.40;98.12;100543.00;5059657;28;20291;-59
2023/09/11 08:20:55;;;;;;;14.97;6.27;;;;;;;20.36;98.60;100541.44;5071979;28;20274;-60
2023/09/11 08:23:26;;;;;;;19.87;6.50;;;;;;;20.34;98.59;100548.59;5062583;28;20290;-59
2023/09/11 08:25:58;;;;;;;19.63;7.47;;;;;;;20.29;99.26;100543.53;5073279;28;20290;-60
2023/09/11 08:28:29;;;;;;;17.40;6.77;;;;;;;20.22;99.59;100545.66;5061189;28;20382;-63
2023/09/11 08:31:00;;;;;;;24.67;6.77;;;;;;;20.21;99.85;100553.69;5071461;28;20635;-60
2023/09/11 08:33:32;;;;;;;17.03;5.93;;;;;;;20.18;99.80;100552.06;5073986;28;20278;-62
2023/09/11 08:36:23;;;;;;;17.50;6.30;;;;;;;20.09;100.00;100549.88;5063424;28;20274;-61
2023/09/11 08:38:53;;;;;;;19.13;5.87;;;;;;;20.04;100.00;100562.50;5072739;28;20289;-59
2023/09/11 08:41:25;;;;;;;17.77;5.43;;;;;;;20.00;100.00;100560.97;5061333;28;20285;-60
2023/09/11 08:43:56;;;;;;;12.80;5.03;;;;;;;19.92;100.00;100556.06;5072303;28;20323;-59
2023/09/11 08:46:32;;;;;;;18.27;5.20;;;;;;;19.89;100.00;100563.28;5062574;28;20281;-60
2023/09/11 08:49:09;;;;;;;14.87;5.10;;;;;;;19.31;100.00;100477.75;5061008;28;20282;-59
2023/09/11 08:51:44;;;;;;;13.33;5.00;;;;;;;19.78;100.00;100567.34;5072492;28;20368;-58
2023/09/11 08:54:17;;;;;;;9.07;4.87;;;;;;;19.81;100.00;100569.84;5061688;28;20292;-59
2023/09/11 08:56:48;;;;;;;10.67;4.10;;;;;;;19.45;100.00;100521.28;5072375;28;20376;-59
2023/09/11 08:59:22;;;;;;;20.10;4.67;;;;;;;19.56;100.00;100550.75;5061041;28;20570;-59
2023/09/11 09:01:58;;;;;;;17.30;5.53;;;;;;;19.58;100.00;100564.78;5072683;28;20624;-60
2023/09/11 09:04:40;;;;;;;15.83;4.80;;;;;;;19.53;100.00;100567.66;5061257;28;20358;-60
2023/09/11 09:07:26;;;;;;;11.70;4.67;;;;;;;19.56;100.00;100556.91;5057974;28;20284;-59
2023/09/11 09:09:59;;;;;;;13.43;4.47;;;;;;;19.47;100.00;100545.91;5067264;28;20305;-60
2023/09/11 09:12:30;;;;;;;9.30;4.77;;;;;;;19.55;100.00;100560.50;5060808;28;20290;-59
2023/09/11 09:15:05;;;;;;;15.20;5.03;;;;;;;19.47;100.00;100551.19;5061893;28;20281;-60
2023/09/11 09:17:38;;;;;;;12.33;4.60;;;;;;;19.48;100.00;100568.84;5071214;28;21798;-59
2023/09/11 09:20:14;;;;;;;12.10;4.83;;;;;;;19.45;100.00;100563.69;5061332;28;20756;-60
2023/09/11 09:23:00;;;;;;;22.93;5.40;;;;;;;19.43;100.00;100555.78;5071993;28;20382;-60
2023/09/11 09:25:32;;;;;;;9.13;4.00;;;;;;;19.36;100.00;100549.94;5061334;28;20300;-60
2023/09/11 09:28:02;;;;;;;13.53;4.80;;;;;;;19.31;100.00;100557.25;5059316;28;20367;-60
2023/09/11 09:30:34;;;;;;;8.47;4.50;;;;;;;19.28;100.00;100565.34;5071795;28;20308;-59
2023/09/11 09:33:15;;;;;;;17.73;5.23;;;;;;;19.28;100.00;100561.84;5061399;28;20286;-60
2023/09/11 09:35:48;;;;;;;14.90;4.53;;;;;;;19.25;100.00;100551.41;5072519;28;20737;-61
2023/09/11 09:38:24;;;;;;;15.70;5.17;;;;;;;18.95;100.00;100513.03;5061329;28;20299;-62
2023/09/11 09:40:56;;;;;;;11.77;6.00;;;;;;;19.28;100.00;100562.69;5071986;28;20343;-62
2023/09/11 09:43:29;;;;;;;15.43;5.27;;;;;;;19.21;100.00;100555.97;5060140;28;20363;-61
2023/09/11 09:46:07;;;;;;;11.60;5.50;;;;;;;19.15;100.00;100550.97;5069209;28;20808;-66
2023/09/11 09:48:41;;;;;;;16.10;5.60;;;;;;;19.23;100.00;100554.09;5069480;28;20294;-62
2023/09/11 09:51:15;;;;;;;13.87;5.23;;;;;;;19.19;100.00;100563.13;5059712;28;20284;-61
2023/09/11 09:54:45;;;;;;;10.57;5.13;;;;;;;19.10;100.00;100558.28;5070269;28;20430;-59
2023/09/11 09:57:56;;;;;;;13.47;5.30;;;;;;;19.05;100.00;100560.28;4884968;29;20759;-59
2023/09/11 10:04:25;;;;;;;12.80;4.77;;;;;;;18.91;100.00;100553.81;4816007;29;20389;-60
2023/09/11 10:07:46;;;;;;;10.97;4.73;;;;;;;18.98;100.00;100569.44;4902006;28;20310;-59
2023/09/11 10:10:38;;;;;;;15.70;5.37;;;;;;;18.69;100.00;100542.47;4837276;29;20284;-60
2023/09/11 10:13:21;;;;;;;10.70;5.00;;;;;;;18.91;100.00;100575.00;4903231;28;20607;-58
2023/09/11 10:15:53;;;;;;;8.23;4.90;;;;;;;18.96;100.00;100561.56;4910446;29;20860;-60
2023/09/11 10:18:24;;;;;;;11.00;5.10;;;;;;;18.91;100.00;100563.56;4901836;29;20757;-61
2023/09/11 10:21:26;;;;;;;11.77;4.67;;;;;;;18.94;100.00;100566.91;4912544;28;20595;-63
2023/09/11 10:23:59;;;;;;;10.23;4.90;;;;;;;18.95;100.00;100570.44;4896662;29;20377;-60
2023/09/11 10:26:38;;;;;;;11.10;5.60;;;;;;;18.77;100.00;100550.97;4900718;29;20283;-59
2023/09/11 10:29:36;;;;;;;10.65;5.72;;;;;;;18.90;100.00;100578.59;4997959;28;20457;-60
2023/09/11 10:32:20;;;;;;;13.13;4.90;;;;;;;18.86;100.00;100579.66;5002399;28;20041;-61
2023/09/11 10:34:58;;;;;;;7.90;4.70;;;;;;;18.76;100.00;100570.41;5070663;28;20054;-60
2023/09/11 10:37:51;;;;;;;10.93;5.60;;;;;;;18.79;100.00;100580.00;5069940;28;20278;-60
2023/09/11 10:40:34;;;;;;;12.30;5.53;;;;;;;18.78;100.00;100575.66;5059450;28;20363;-60
2023/09/11 10:44:07;;;;;;;13.57;5.20;;;;;;;18.78;100.00;100573.00;5058895;28;20281;-60
2023/09/11 10:50:13;;;;;;;13.23;5.20;;;;;;;18.72;100.00;100550.25;5014075;28;20296;-60
2023/09/11 10:52:57;;;;;;;12.37;5.50;;;;;;;18.73;100.00;100555.50;5070509;28;20294;-61
2023/09/11 10:55:33;;;;;;;15.83;5.63;;;;;;;18.73;100.00;100550.19;5057777;28;20298;-60
2023/09/11 10:58:15;;;;;;;13.90;6.03;;;;;;;18.74;100.00;100546.63;5058873;28;20282;-60
2023/09/11 11:00:55;;;;;;;12.53;5.73;;;;;;;18.66;100.00;100526.75;5069755;28;20371;-60
2023/09/11 11:03:35;;;;;;;12.33;6.10;;;;;;;18.70;100.00;100542.41;5059878;28;20278;-60
2023/09/11 11:06:17;;;;;;;13.98;6.55;;;;;;;18.66;100.00;100542.63;5059093;28;20354;-60
2023/09/11 11:09:23;;;;;;;16.53;7.03;;;;;;;18.64;100.00;100544.47;5060103;28;20032;-60
2023/09/11 11:12:08;;;;;;;17.53;6.67;;;;;;;18.62;100.00;100541.03;5068794;28;20297;-61
2023/09/11 11:14:40;;;;;;;14.40;6.30;;;;;;;18.62;100.00;100541.03;5058846;28;20282;-60
2023/09/11 11:17:12;;;;;;;12.10;6.10;;;;;;;18.65;100.00;100535.63;5058988;28;20410;-60
2023/09/11 11:19:53;;;;;;;15.83;6.77;;;;;;;18.65;100.00;100532.97;5068054;28;20388;-60
2023/09/11 11:22:43;;;;;;;16.07;7.27;;;;;;;18.65;100.00;100540.91;5059077;28;20279;-58
2023/09/11 11:25:19;;;;;;;18.70;7.40;;;;;;;18.62;100.00;100519.84;5058841;28;20756;-61
2023/09/11 11:27:57;;;;;;;12.40;6.33;;;;;;;18.69;100.00;100521.28;5069888;28;20286;-60
2023/09/11 11:30:28;;;;;;;11.90;6.77;;;;;;;18.66;100.00;100516.16;5059769;28;20333;-59
2023/09/11 11:33:02;;;;;;;14.37;6.77;;;;;;;18.62;100.00;100498.69;5068223;28;20285;-60
2023/09/11 11:35:37;;;;;;;16.50;7.30;;;;;;;18.54;100.00;100475.22;5068754;28;20321;-59
2023/09/11 11:38:18;;;;;;;15.80;7.10;;;;;;;18.57;100.00;100477.75;5059792;28;20415;-60
2023/09/11 11:40:50;;;;;;;14.47;7.17;;;;;;;18.60;100.00;100496.13;5051695;28;20302;-59
2023/09/11 11:43:27;;;;;;;16.97;7.27;;;;;;;18.57;100.00;100495.38;5059823;28;20646;-60
2023/09/11 11:45:59;;;;;;;13.40;7.37;;;;;;;18.35;100.00;100448.75;5071248;28;20751;-60
2023/09/11 11:48:41;;;;;;;14.57;7.10;;;;;;;18.48;100.00;100471.06;5060270;28;20282;-59
2023/09/11 11:51:16;;;;;;;16.60;7.80;;;;;;;18.53;100.00;100482.31;5058652;28;20278;-59
2023/09/11 11:57:05;;;;;;;17.77;8.57;;;;;;;18.44;100.00;100473.94;5062834;28;20289;-62